Time;durP1;ratioP1;P1;durP2;ratioP2;P2;SDS_P1;SDS_P2;PMS_P1;PMS_P2;Temp;Humidity;BMP_temperature;BMP_pressure;BME280_temperature;BME280_humidity;BME280_pressure;Samples;Min_cycle;Max_cycle;Signal;HPM_P1;HPM_P2
2023/09/04 00:00:28;;;;;;;;;4.25;4.25;;;;;23.40;61.70;101738.94;5065344;28;45452;-72
2023/09/04 00:02:53;;;;;;;;;3.50;3.50;;;;;23.43;61.70;101740.59;5077222;28;69814;-73
2023/09/04 00:05:19;;;;;;;;;4.25;3.00;;;;;23.39;61.53;101733.72;5071212;27;72471;-72
2023/09/04 00:07:45;;;;;;;;;4.00;4.00;;;;;23.36;61.90;101729.44;5075318;27;45536;-73
2023/09/04 00:10:13;;;;;;;;;7.00;4.25;;;;;23.33;61.82;101724.28;5059209;28;45318;-73
2023/09/04 00:12:38;;;;;;;;;3.25;3.00;;;;;23.29;61.49;101728.13;5069286;27;45528;-73
2023/09/04 00:15:04;;;;;;;;;3.75;3.50;;;;;23.31;61.79;101736.88;5051914;27;47187;-71
2023/09/04 00:17:30;;;;;;;;;4.75;4.75;;;;;23.28;61.83;101743.31;5072855;27;45441;-73
2023/09/04 00:19:56;;;;;;;;;4.25;4.00;;;;;23.24;61.57;101733.75;5072794;27;45380;-72
2023/09/04 00:22:22;;;;;;;;;3.00;2.25;;;;;23.23;61.91;101734.72;5072103;28;45448;-72
2023/09/04 00:24:47;;;;;;;;;4.50;4.25;;;;;23.17;62.00;101731.59;5061142;28;46961;-72
2023/09/04 00:27:13;;;;;;;;;4.00;4.00;;;;;23.15;61.94;101726.34;5069378;27;45355;-72
2023/09/04 00:29:38;;;;;;;;;9.00;4.50;;;;;23.11;62.73;101720.34;5071008;27;45819;-72
2023/09/04 00:32:04;;;;;;;;;4.00;4.00;;;;;23.07;62.51;101724.19;5068297;27;59752;-73
2023/09/04 00:34:30;;;;;;;;;6.25;5.25;;;;;23.00;62.20;101720.16;5078105;27;45460;-73
2023/09/04 00:36:55;;;;;;;;;6.75;5.50;;;;;22.98;63.08;101723.84;5056075;28;45227;-71
2023/09/04 00:39:21;;;;;;;;;3.75;2.25;;;;;22.92;62.54;101717.09;5072581;27;45229;-72
2023/09/04 00:41:47;;;;;;;;;6.00;4.50;;;;;22.86;63.33;101718.34;5063335;28;45516;-72
2023/09/04 00:44:12;;;;;;;;;5.50;4.50;;;;;22.84;63.39;101716.72;5072013;27;46686;-73
2023/09/04 00:46:38;;;;;;;;;6.75;6.25;;;;;22.79;62.85;101722.38;5071936;28;45456;-73
2023/09/04 00:49:04;;;;;;;;;4.50;4.00;;;;;22.75;63.57;101715.47;5070996;27;45319;-73
2023/09/04 00:51:29;;;;;;;;;7.00;6.00;;;;;22.72;63.91;101715.69;5072962;28;71984;-73
2023/09/04 00:53:55;;;;;;;;;4.25;4.25;;;;;22.64;63.65;101707.31;5056345;27;63066;-70
2023/09/04 00:56:21;;;;;;;;;5.75;4.75;;;;;22.63;63.69;101716.25;5072714;27;45517;-72
2023/09/04 00:58:47;;;;;;;;;7.50;5.00;;;;;22.58;64.06;101707.72;5071149;27;45417;-72
2023/09/04 01:01:12;;;;;;;;;4.50;4.50;;;;;22.56;64.11;101705.13;5062370;28;45420;-72
2023/09/04 01:03:38;;;;;;;;;8.00;7.00;;;;;22.53;63.75;101703.50;5061543;28;68319;-72
2023/09/04 01:06:04;;;;;;;;;6.00;6.00;;;;;22.53;64.24;101707.97;5073975;27;45288;-72
2023/09/04 01:08:30;;;;;;;;;8.75;6.25;;;;;22.49;64.11;101709.97;5092201;27;45391;-72
2023/09/04 01:11:17;;;;;;;;;5.75;4.50;;;;;22.46;64.01;101707.50;5077533;27;45306;-72
2023/09/04 01:13:54;;;;;;;;;5.25;5.25;;;;;22.44;64.81;101705.88;5069603;27;45665;-72
2023/09/04 01:16:21;;;;;;;;;6.00;5.25;;;;;22.42;64.16;101703.31;5096132;27;45397;-72
2023/09/04 01:18:47;;;;;;;;;6.75;6.25;;;;;22.41;64.60;101706.06;5071089;27;45551;-72
2023/09/04 01:21:12;;;;;;;;;5.25;4.50;;;;;22.40;64.61;101702.56;5070364;27;45370;-74
2023/09/04 01:23:38;;;;;;;;;7.25;5.00;;;;;22.39;64.53;101706.16;5073839;28;54083;-72
2023/09/04 01:26:15;;;;;;;;;4.75;4.75;;;;;22.32;64.34;101692.34;5088368;27;45998;-72
2023/09/04 01:29:00;;;;;;;;;8.00;6.00;;;;;22.33;65.02;101702.06;5075743;27;45494;-74
2023/09/04 01:31:33;;;;;;;;;5.25;5.25;;;;;22.31;64.55;101701.31;5072650;27;45405;-73
2023/09/04 01:34:05;;;;;;;;;5.50;5.50;;;;;22.29;64.96;101700.53;5079146;27;46224;-73
2023/09/04 01:36:32;;;;;;;;;8.00;6.75;;;;;22.27;65.02;101696.25;5075310;27;45445;-73
2023/09/04 01:38:58;;;;;;;;;6.25;5.75;;;;;22.25;64.58;101690.13;5076325;27;45873;-73
2023/09/04 01:41:23;;;;;;;;;6.00;6.00;;;;;22.23;64.73;101686.69;5076647;27;66956;-73
2023/09/04 01:43:49;;;;;;;;;7.25;6.50;;;;;22.18;64.73;101690.47;5067480;28;46272;-73
2023/09/04 01:46:14;;;;;;;;;7.75;6.50;;;;;22.20;65.21;101690.38;5078450;27;64813;-73
2023/09/04 01:48:39;;;;;;;;;6.25;5.00;;;;;22.15;65.11;101682.69;5078412;27;68291;-71
2023/09/04 01:51:05;;;;;;;;;5.75;5.75;;;;;22.14;65.02;101675.63;5072534;27;45474;-70
2023/09/04 01:53:30;;;;;;;;;5.25;5.25;;;;;22.12;64.92;101685.53;5071231;27;46304;-71
2023/09/04 01:55:56;;;;;;;;;7.25;6.00;;;;;22.10;65.04;101686.59;5069711;27;45713;-71
2023/09/04 01:58:21;;;;;;;;;6.75;6.75;;;;;22.02;65.05;101675.53;5074398;27;45367;-71
2023/09/04 02:00:47;;;;;;;;;7.50;6.00;;;;;22.00;65.13;101671.13;5072373;27;58302;-71
2023/09/04 02:03:13;;;;;;;;;7.00;7.00;;;;;21.98;65.51;101673.03;5070740;27;45410;-73
2023/09/04 02:05:39;;;;;;;;;7.00;7.00;;;;;21.94;65.48;101666.19;5072208;27;45627;-72
2023/09/04 02:08:05;;;;;;;;;10.25;8.00;;;;;21.93;65.85;101661.78;5070602;27;45346;-73
2023/09/04 02:10:35;;;;;;;;;5.50;5.50;;;;;21.90;65.62;101654.00;5076268;27;45956;-73
2023/09/04 02:13:01;;;;;;;;;6.75;6.00;;;;;21.89;65.91;101654.94;5075213;27;45454;-72
2023/09/04 02:15:26;;;;;;;;;5.75;5.75;;;;;21.87;65.94;101648.84;5067763;27;45628;-72
2023/09/04 02:17:52;;;;;;;;;7.75;6.00;;;;;21.84;65.55;101649.03;5073882;27;45453;-72
2023/09/04 02:20:17;;;;;;;;;7.00;6.00;;;;;21.80;65.77;101640.34;5082135;27;45454;-72
2023/09/04 02:22:43;;;;;;;;;7.25;7.25;;;;;21.79;66.21;101637.78;5071140;27;45499;-73
2023/09/04 02:25:09;;;;;;;;;12.75;10.50;;;;;21.77;66.08;101645.00;5069782;27;45474;-70
2023/09/04 02:27:34;;;;;;;;;9.50;7.75;;;;;21.78;65.77;101638.75;5070152;27;45346;-72
2023/09/04 02:30:02;;;;;;;;;8.50;7.00;;;;;21.77;65.49;101635.19;5071221;27;63474;-72
2023/09/04 02:32:28;;;;;;;;;7.50;7.25;;;;;21.77;65.94;101634.34;5080369;27;45461;-72
2023/09/04 02:34:53;;;;;;;;;9.50;8.75;;;;;21.75;66.17;101631.78;5066820;28;67275;-72
2023/09/04 02:37:18;;;;;;;;;7.25;5.75;;;;;21.75;65.91;101631.78;5074495;27;45407;-71
2023/09/04 02:39:44;;;;;;;;;6.75;5.75;;;;;21.74;65.91;101632.75;5065141;28;61585;-72
2023/09/04 02:42:09;;;;;;;;;5.50;5.50;;;;;21.73;66.47;101630.16;5052958;28;68992;-72
2023/09/04 02:44:34;;;;;;;;;7.00;7.00;;;;;21.70;65.68;101622.34;5079724;27;45310;-72
2023/09/04 02:47:00;;;;;;;;;6.50;6.50;;;;;21.66;66.29;101612.84;5072877;27;66617;-71
2023/09/04 02:49:25;;;;;;;;;8.00;5.00;;;;;21.65;66.21;101619.94;5070985;27;66103;-72
2023/09/04 02:51:50;;;;;;;;;6.75;6.75;;;;;21.61;66.31;101619.28;5059523;28;72793;-73
2023/09/04 02:54:16;;;;;;;;;8.25;6.50;;;;;21.63;66.33;101616.53;5065837;27;70587;-72
2023/09/04 02:56:41;;;;;;;;;7.50;5.75;;;;;21.59;65.69;101605.19;5074067;27;53341;-73
2023/09/04 02:59:07;;;;;;;;;7.75;6.25;;;;;21.59;66.11;101610.53;5093192;27;45534;-73
2023/09/04 03:01:34;;;;;;;;;5.75;5.50;;;;;21.57;66.34;101606.25;5068027;27;65037;-73
2023/09/04 03:03:59;;;;;;;;;6.75;5.00;;;;;21.54;65.98;101609.94;5068351;27;45514;-72
2023/09/04 03:06:24;;;;;;;;;7.25;7.00;;;;;21.52;65.93;101610.97;5074214;27;45627;-73
2023/09/04 03:08:50;;;;;;;;;7.00;7.00;;;;;21.50;66.67;101615.56;5075760;27;61677;-72
2023/09/04 03:11:15;;;;;;;;;6.75;6.00;;;;;21.49;66.26;101620.00;5054639;28;47658;-72
2023/09/04 03:13:41;;;;;;;;;7.25;7.25;;;;;21.47;66.53;101621.06;5067552;28;65036;-73
2023/09/04 03:16:06;;;;;;;;;7.25;7.25;;;;;21.45;65.98;101620.25;5072563;27;60180;-73
2023/09/04 03:18:33;;;;;;;;;6.50;6.50;;;;;21.43;66.13;101618.53;5072598;27;45501;-73
2023/09/04 03:20:58;;;;;;;;;6.00;6.00;;;;;21.38;66.15;101615.28;5067364;27;46290;-72
2023/09/04 03:23:24;;;;;;;;;6.50;6.50;;;;;21.37;66.37;101621.56;5075181;28;45409;-72
2023/09/04 03:25:49;;;;;;;;;10.50;9.00;;;;;21.35;66.22;101625.25;5074487;27;66989;-73
2023/09/04 03:28:14;;;;;;;;;6.00;6.00;;;;;21.33;66.30;101622.66;5071527;28;58493;-73
2023/09/04 03:30:40;;;;;;;;;10.00;6.50;;;;;21.31;66.62;101613.06;5068349;28;72914;-72
2023/09/04 03:33:05;;;;;;;;;8.50;6.00;;;;;21.28;66.36;101606.09;5068772;28;45962;-73
2023/09/04 03:35:30;;;;;;;;;8.00;8.00;;;;;21.26;66.69;101601.81;5070366;28;46615;-73
2023/09/04 03:37:56;;;;;;;;;7.50;6.50;;;;;21.28;66.34;101607.91;5070680;27;45371;-73
2023/09/04 03:40:23;;;;;;;;;7.00;5.75;;;;;21.28;66.79;101602.59;5089072;27;65805;-73
2023/09/04 03:42:49;;;;;;;;;8.50;7.75;;;;;21.26;66.70;101593.84;5071999;27;45835;-72
2023/09/04 03:45:14;;;;;;;;;7.75;5.25;;;;;21.26;66.56;101597.34;5076890;27;45350;-72
2023/09/04 03:47:41;;;;;;;;;8.50;7.00;;;;;21.26;66.61;101588.50;5075259;27;45514;-72
2023/09/04 03:50:09;;;;;;;;;9.00;6.50;;;;;21.25;66.73;101590.31;5067919;27;45457;-73
2023/09/04 03:52:34;;;;;;;;;9.00;6.75;;;;;21.24;66.71;101601.91;5095048;27;45840;-72
2023/09/04 03:55:00;;;;;;;;;7.75;5.25;;;;;21.20;66.69;101605.72;5067353;28;45395;-72
2023/09/04 03:57:25;;;;;;;;;10.00;8.00;;;;;21.16;66.13;101607.69;5076860;27;45226;-72
2023/09/04 03:59:56;;;;;;;;;8.00;7.50;;;;;21.14;66.30;101617.56;5070313;27;46079;-73
2023/09/04 04:02:21;;;;;;;;;7.50;7.00;;;;;21.03;66.42;101599.56;5068852;27;45975;-72
2023/09/04 04:04:50;;;;;;;;;11.50;6.75;;;;;21.05;66.86;101607.44;5068900;28;51317;-72
2023/09/04 04:07:16;;;;;;;;;7.50;4.75;;;;;21.00;66.44;101606.84;5072503;27;45633;-71
2023/09/04 04:09:43;;;;;;;;;7.50;7.00;;;;;20.99;66.60;101599.81;5067090;28;46656;-72
2023/09/04 04:12:09;;;;;;;;;8.75;8.00;;;;;20.97;67.06;101604.38;5073505;28;45330;-72
2023/09/04 04:14:34;;;;;;;;;8.25;7.25;;;;;20.93;67.28;101598.38;5071290;28;45411;-71
2023/09/04 04:17:01;;;;;;;;;7.75;7.25;;;;;20.90;66.85;101598.53;5066646;28;45704;-72
2023/09/04 04:19:27;;;;;;;;;8.00;8.00;;;;;20.86;66.91;101595.19;5056645;28;48386;-72
2023/09/04 04:21:52;;;;;;;;;7.50;6.25;;;;;20.83;67.48;101602.47;5057340;28;45510;-72
2023/09/04 04:24:17;;;;;;;;;7.50;6.25;;;;;20.84;67.01;101598.84;5063351;27;63268;-72
2023/09/04 04:26:43;;;;;;;;;8.00;8.00;;;;;20.79;67.53;101596.47;5073218;27;69344;-72
2023/09/04 04:29:08;;;;;;;;;7.50;5.50;;;;;20.79;67.40;101599.13;5068917;27;48155;-73
2023/09/04 04:31:34;;;;;;;;;8.00;5.75;;;;;20.76;67.72;101596.66;5071950;27;45444;-72
2023/09/04 04:33:59;;;;;;;;;8.00;6.00;;;;;20.75;67.48;101594.94;5073862;27;54904;-73
2023/09/04 04:36:24;;;;;;;;;9.25;8.75;;;;;20.74;67.21;101592.38;5076905;27;62428;-72
2023/09/04 04:38:50;;;;;;;;;12.75;7.75;;;;;20.72;67.44;101592.44;5056117;28;46468;-73
2023/09/04 04:41:15;;;;;;;;;5.75;5.75;;;;;20.74;67.42;101593.22;5069021;28;64864;-73
2023/09/04 04:43:40;;;;;;;;;8.50;6.25;;;;;20.70;66.84;101588.16;5066693;27;45363;-73
2023/09/04 04:46:09;;;;;;;;;6.75;6.75;;;;;20.70;67.72;101583.69;5072050;28;57396;-73
2023/09/04 04:48:34;;;;;;;;;9.50;7.25;;;;;20.71;67.31;101590.72;5069584;27;46154;-72
2023/09/04 04:50:59;;;;;;;;;6.00;6.00;;;;;20.70;67.46;101588.16;5091278;27;54517;-73
2023/09/04 04:53:25;;;;;;;;;6.75;6.50;;;;;20.67;67.00;101589.19;5071156;27;45462;-73
2023/09/04 04:55:50;;;;;;;;;8.25;6.75;;;;;20.65;67.53;101591.94;5075906;27;45413;-73
2023/09/04 04:58:19;;;;;;;;;7.25;7.25;;;;;20.66;67.20;101598.09;5071016;27;45399;-72
2023/09/04 05:00:44;;;;;;;;;8.00;7.00;;;;;20.64;67.53;101592.00;5057655;28;45506;-72
2023/09/04 05:03:10;;;;;;;;;9.50;7.50;;;;;20.62;67.22;101599.22;5058606;28;47482;-72
2023/09/04 05:05:35;;;;;;;;;12.25;9.00;;;;;20.60;67.15;101598.41;5070249;27;65347;-73
2023/09/04 05:08:00;;;;;;;;;8.50;7.25;;;;;20.61;67.33;101598.38;5055194;28;53184;-73
2023/09/04 05:10:26;;;;;;;;;10.25;9.75;;;;;20.58;67.44;101595.00;5073446;27;54101;-72
2023/09/04 05:12:51;;;;;;;;;8.00;8.00;;;;;20.58;67.27;101590.53;5069648;28;45401;-72
2023/09/04 05:15:17;;;;;;;;;8.50;8.50;;;;;20.57;67.60;101588.78;5066016;28;45449;-72
2023/09/04 05:17:42;;;;;;;;;8.75;8.50;;;;;20.55;67.49;101588.03;5072360;27;45559;-73
2023/09/04 05:20:09;;;;;;;;;8.25;7.75;;;;;20.58;67.30;101597.66;5070491;28;67502;-74
2023/09/04 05:22:35;;;;;;;;;11.00;7.50;;;;;20.56;67.29;101596.88;5055031;28;45292;-74
2023/09/04 05:25:00;;;;;;;;;6.75;6.75;;;;;20.54;67.37;101599.63;5062042;28;45599;-69
2023/09/04 05:27:26;;;;;;;;;9.50;8.50;;;;;20.57;67.20;101606.56;5071818;27;45856;-70
2023/09/04 05:29:51;;;;;;;;;8.00;8.00;;;;;20.54;67.47;101606.72;5058859;28;45549;-70
2023/09/04 05:32:16;;;;;;;;;8.25;7.75;;;;;20.59;67.28;101604.66;5071544;28;45474;-70
2023/09/04 05:34:42;;;;;;;;;8.50;8.00;;;;;20.61;67.33;101598.38;5044888;28;68362;-71
2023/09/04 05:37:08;;;;;;;;;9.50;8.00;;;;;20.64;67.36;101603.50;5067528;28;51481;-71
2023/09/04 05:39:33;;;;;;;;;12.00;9.00;;;;;20.66;66.98;101598.97;5069929;27;45219;-70
2023/09/04 05:41:59;;;;;;;;;9.00;7.00;;;;;20.65;67.09;101594.59;5066840;28;69467;-69
2023/09/04 05:44:24;;;;;;;;;13.00;8.75;;;;;20.72;67.00;101594.25;5072787;28;45312;-69
2023/09/04 05:46:49;;;;;;;;;57.25;41.00;;;;;20.78;67.07;101602.72;5071200;28;65028;-69
2023/09/04 05:49:15;;;;;;;;;16.25;12.00;;;;;20.84;66.57;101606.84;5076500;27;55145;-70
2023/09/04 05:51:40;;;;;;;;;9.00;7.00;;;;;20.89;66.75;101604.78;5056182;28;45488;-70
2023/09/04 05:54:06;;;;;;;;;11.75;10.00;;;;;20.92;66.09;101611.75;5077630;28;45494;-69
2023/09/04 05:56:31;;;;;;;;;12.25;10.00;;;;;20.92;66.67;101604.63;5091658;27;47403;-67
2023/09/04 05:58:58;;;;;;;;;8.75;8.50;;;;;20.92;66.42;101603.78;5070886;27;48892;-72
2023/09/04 06:01:24;;;;;;;;;8.75;8.75;;;;;20.90;66.35;101609.19;5074210;28;45560;-68
2023/09/04 06:03:49;;;;;;;;;11.50;8.75;;;;;20.89;66.05;101617.25;5075315;27;45326;-69
2023/09/04 06:06:15;;;;;;;;;8.50;7.50;;;;;20.88;66.44;101610.22;5061478;28;46944;-67
2023/09/04 06:08:41;;;;;;;;;10.00;8.00;;;;;20.90;65.87;101611.84;5074347;27;45472;-68
2023/09/04 06:11:06;;;;;;;;;14.00;10.00;;;;;20.88;66.26;101613.72;5066975;28;58460;-67
2023/09/04 06:13:32;;;;;;;;;10.00;9.25;;;;;20.93;65.92;101621.44;5066218;28;45586;-69
2023/09/04 06:15:59;;;;;;;;;12.00;8.75;;;;;20.95;65.89;101619.56;5074377;28;45380;-71
2023/09/04 06:18:24;;;;;;;;;12.00;9.00;;;;;20.88;65.78;101612.88;5078084;27;45575;-72
2023/09/04 06:20:51;;;;;;;;;8.00;8.00;;;;;20.85;65.99;101616.56;5071012;28;45701;-74
2023/09/04 06:23:16;;;;;;;;;7.00;7.00;;;;;20.86;66.00;101612.97;5088331;27;45461;-73
2023/09/04 06:25:43;;;;;;;;;11.75;8.00;;;;;20.90;65.77;101619.81;5068975;28;50920;-72
2023/09/04 06:28:12;;;;;;;;;9.50;9.50;;;;;20.88;65.52;101618.19;5074531;27;45572;-72
2023/09/04 06:30:38;;;;;;;;;10.00;10.00;;;;;20.83;65.88;101621.09;5072330;28;45221;-71
2023/09/04 06:33:04;;;;;;;;;9.00;9.00;;;;;20.80;65.49;101624.78;5070098;28;45449;-73
2023/09/04 06:35:30;;;;;;;;;9.00;8.25;;;;;20.78;66.22;101617.84;5074478;28;46299;-67
2023/09/04 06:37:56;;;;;;;;;9.50;9.25;;;;;20.81;66.42;101621.19;5075970;27;45704;-73
2023/09/04 06:40:22;;;;;;;;;11.75;9.25;;;;;20.83;65.54;101631.75;5075359;28;45394;-75
2023/09/04 06:42:47;;;;;;;;;11.25;9.25;;;;;20.85;65.69;101616.56;5086363;28;45502;-75
2023/09/04 06:45:13;;;;;;;;;9.50;7.75;;;;;20.89;66.01;101617.25;5084570;28;46976;-72
2023/09/04 06:47:39;;;;;;;;;13.25;9.50;;;;;20.96;65.92;101618.59;5087302;27;64030;-76
2023/09/04 06:50:06;;;;;;;;;13.00;9.25;;;;;21.02;65.94;101618.28;5081015;28;45398;-71
2023/09/04 06:52:31;;;;;;;;;10.00;9.25;;;;;21.08;65.72;101622.38;5076140;28;45356;-71
2023/09/04 06:54:57;;;;;;;;;11.00;9.00;;;;;21.11;64.89;101623.06;5083122;28;45579;-70
2023/09/04 06:57:22;;;;;;;;;10.00;10.00;;;;;21.18;64.95;101628.91;5077390;27;45501;-71
2023/09/04 06:59:47;;;;;;;;;12.00;10.00;;;;;21.21;65.28;101626.91;5067522;28;67668;-72
2023/09/04 07:02:13;;;;;;;;;12.00;11.00;;;;;21.26;64.89;101626.63;5069135;28;61264;-73
2023/09/04 07:04:38;;;;;;;;;10.25;9.50;;;;;21.26;64.59;101626.63;5072164;28;65069;-72
2023/09/04 07:07:03;;;;;;;;;12.25;9.75;;;;;21.23;64.36;101622.34;5077507;28;48483;-69
2023/09/04 07:09:29;;;;;;;;;5.75;5.00;;;;;21.26;64.46;101620.47;5051775;28;70306;-67
2023/09/04 07:11:54;;;;;;;;;11.25;9.75;;;;;21.22;64.22;101615.31;5073580;28;45325;-67
2023/09/04 07:14:20;;;;;;;;;10.50;9.75;;;;;21.18;64.35;101619.09;5062947;28;45423;-66
2023/09/04 07:16:45;;;;;;;;;13.50;9.50;;;;;21.18;64.51;101620.91;5051132;28;70988;-66
2023/09/04 07:19:12;;;;;;;;;7.25;7.25;;;;;21.16;64.20;101617.47;5070678;28;50442;-66
2023/09/04 07:21:40;;;;;;;;;10.00;7.50;;;;;21.22;64.06;101611.78;5078107;28;45297;-65
2023/09/04 07:24:06;;;;;;;;;9.75;8.50;;;;;21.26;64.46;101609.81;5054427;28;48201;-66
2023/09/04 07:26:31;;;;;;;;;9.50;8.00;;;;;21.31;64.41;101605.09;5066809;28;45435;-66
2023/09/04 07:28:56;;;;;;;;;9.75;8.50;;;;;21.36;64.13;101611.00;5071286;27;45338;-76
2023/09/04 07:31:22;;;;;;;;;9.75;9.00;;;;;21.41;63.91;101609.78;5062074;28;45438;-75
2023/09/04 07:33:48;;;;;;;;;12.00;10.75;;;;;21.43;63.66;101613.19;5068060;28;68363;-74
2023/09/04 07:36:13;;;;;;;;;8.75;7.00;;;;;21.46;63.77;101612.22;5077865;28;45454;-82
2023/09/04 07:38:39;;;;;;;;;10.25;8.50;;;;;21.46;63.39;101608.66;5071793;27;45889;-82
2023/09/04 07:41:05;;;;;;;;;8.25;8.00;;;;;21.48;63.55;101607.66;5078257;27;45495;-82
2023/09/04 07:43:31;;;;;;;;;15.50;10.00;;;;;21.51;63.13;101604.78;5061312;28;47366;-82
2023/09/04 07:45:57;;;;;;;;;9.75;9.75;;;;;21.50;63.61;101595.09;5079692;28;45591;-83
2023/09/04 07:48:22;;;;;;;;;10.50;8.75;;;;;21.52;63.86;101592.34;5078117;28;45438;-82
2023/09/04 07:50:48;;;;;;;;;12.25;10.00;;;;;21.61;63.49;101603.28;5079084;28;45492;-82
2023/09/04 07:53:14;;;;;;;;;10.00;10.00;;;;;21.63;63.03;101592.53;5077005;27;46128;-82
2023/09/04 07:55:42;;;;;;;;;10.00;8.75;;;;;21.69;62.85;101600.19;5062497;28;45419;-83
2023/09/04 07:58:08;;;;;;;;;11.00;10.00;;;;;21.76;63.27;101600.66;5065470;27;45453;-82
2023/09/04 08:00:34;;;;;;;;;13.00;10.75;;;;;21.79;62.71;101595.16;5057910;28;49811;-81
2023/09/04 08:02:59;;;;;;;;;11.00;8.75;;;;;21.83;62.85;101595.81;5081452;27;46242;-82
2023/09/04 08:05:25;;;;;;;;;9.50;8.75;;;;;21.87;62.51;101595.53;5085608;27;45277;-82
2023/09/04 08:07:50;;;;;;;;;10.00;9.00;;;;;21.85;62.64;101597.44;5080222;27;45489;-82
2023/09/04 08:10:15;;;;;;;;;9.00;8.25;;;;;21.92;62.52;101603.25;5090439;27;49674;-82
2023/09/04 08:12:41;;;;;;;;;9.00;8.00;;;;;21.95;62.29;101601.25;5082221;27;46319;-82
2023/09/04 08:15:08;;;;;;;;;12.00;9.50;;;;;21.98;62.43;101602.88;5067971;27;54673;-81
2023/09/04 08:17:34;;;;;;;;;5.50;5.50;;;;;21.98;62.21;101597.56;5076968;28;45450;-81
2023/09/04 08:20:00;;;;;;;;;8.75;8.00;;;;;22.01;61.99;101597.38;5081371;28;45509;-81
2023/09/04 08:22:26;;;;;;;;;10.50;9.50;;;;;22.07;62.12;101588.13;5076381;27;45660;-82
2023/09/04 08:24:53;;;;;;;;;11.50;9.00;;;;;22.11;62.11;101590.50;5056943;28;45393;-81
2023/09/04 08:27:19;;;;;;;;;9.50;7.75;;;;;22.17;61.99;101592.78;5073463;28;45235;-82
2023/09/04 08:29:44;;;;;;;;;8.50;7.50;;;;;22.26;61.76;101587.84;5061964;28;45340;-81
2023/09/04 08:32:09;;;;;;;;;7.25;7.25;;;;;22.32;61.58;101588.34;5060501;28;51542;-82
2023/09/04 08:34:35;;;;;;;;;10.50;7.00;;;;;22.39;61.59;101587.97;5078983;28;50643;-80
2023/09/04 08:37:00;;;;;;;;;7.00;7.00;;;;;22.47;61.42;101588.31;5081190;27;53677;-80
2023/09/04 08:39:25;;;;;;;;;15.00;8.50;;;;;22.52;61.16;101578.22;5070803;27;67148;-82
2023/09/04 08:41:51;;;;;;;;;9.50;6.00;;;;;22.59;61.00;101578.69;5058210;28;71164;-82
2023/09/04 08:44:20;;;;;;;;;9.50;7.50;;;;;22.66;60.86;101578.16;5076973;28;67164;-81
2023/09/04 08:46:49;;;;;;;;;8.25;7.00;;;;;22.77;60.64;101581.97;5074179;27;45334;-81
2023/09/04 08:49:16;;;;;;;;;28.75;23.75;;;;;22.84;60.78;101576.16;5065256;28;45189;-80
2023/09/04 08:51:43;;;;;;;;;12.50;12.00;;;;;22.92;60.13;101572.97;5072852;28;45257;-81
2023/09/04 08:54:08;;;;;;;;;11.75;9.75;;;;;22.97;60.22;101564.66;5075791;28;45825;-80
2023/09/04 08:56:34;;;;;;;;;11.25;9.00;;;;;23.06;59.90;101559.59;5071408;28;45426;-81
2023/09/04 08:58:59;;;;;;;;;9.75;9.75;;;;;23.15;60.16;101554.59;5070745;28;60324;-81
2023/09/04 09:01:28;;;;;;;;;16.00;11.00;;;;;23.18;59.77;101555.25;5061062;28;47566;-80
2023/09/04 09:03:53;;;;;;;;;7.00;5.75;;;;;23.23;59.84;101558.47;5078115;27;45295;-80
2023/09/04 09:06:19;;;;;;;;;13.25;8.25;;;;;23.29;59.58;101557.19;5077931;27;47308;-81
2023/09/04 09:08:45;;;;;;;;;6.75;6.50;;;;;23.38;59.56;101551.22;5066080;28;72461;-80
2023/09/04 09:11:13;;;;;;;;;8.75;8.75;;;;;23.46;59.47;101553.34;5076705;28;46046;-81
2023/09/04 09:13:39;;;;;;;;;10.50;7.75;;;;;23.54;59.40;101553.69;5073152;28;45571;-81
2023/09/04 09:16:05;;;;;;;;;6.00;5.50;;;;;23.59;58.55;101553.38;5073643;28;44812;-81
2023/09/04 09:18:38;;;;;;;;;11.75;11.00;;;;;23.62;58.88;101555.81;5067874;28;63529;-80
2023/09/04 09:21:27;;;;;;;;;9.25;9.25;;;;;23.72;58.91;101556.91;5069655;28;46067;-80
2023/09/04 09:24:16;;;;;;;;;8.25;6.75;;;;;23.79;58.57;101549.31;5074088;28;45723;-80
2023/09/04 09:26:51;;;;;;;;;10.50;9.75;;;;;23.90;58.62;101557.47;5068808;28;45339;-80
2023/09/04 09:29:19;;;;;;;;;10.00;8.25;;;;;23.96;58.16;101543.69;5062719;28;45308;-80
2023/09/04 09:31:45;;;;;;;;;8.25;7.00;;;;;24.07;58.00;101548.25;5068998;28;70230;-81
2023/09/04 09:34:12;;;;;;;;;5.00;4.75;;;;;24.12;57.96;101542.59;5074838;28;45763;-81
2023/09/04 09:36:37;;;;;;;;;9.25;6.75;;;;;24.20;57.72;101541.06;5073070;28;45457;-80
2023/09/04 09:39:04;;;;;;;;;7.00;6.25;;;;;24.28;57.54;101527.16;5066753;28;45516;-81
2023/09/04 09:41:30;;;;;;;;;7.25;7.25;;;;;24.35;57.06;101533.75;5073373;28;45631;-81
2023/09/04 09:43:56;;;;;;;;;12.00;8.75;;;;;24.44;57.67;101534.91;5062775;28;45976;-80
2023/09/04 09:46:21;;;;;;;;;9.00;6.25;;;;;24.51;57.30;101530.81;5069677;28;45210;-79
2023/09/04 09:48:47;;;;;;;;;7.50;7.25;;;;;24.58;56.06;101524.06;5052942;28;52845;-80
2023/09/04 09:51:13;;;;;;;;;7.75;6.50;;;;;24.63;56.93;101513.88;5073400;28;60931;-80
2023/09/04 09:53:49;;;;;;;;;10.75;6.75;;;;;24.70;56.42;101514.28;5067419;28;45490;-79
2023/09/04 09:56:17;;;;;;;;;6.75;6.75;;;;;24.81;56.30;101516.16;5062800;28;45552;-80
2023/09/04 09:58:46;;;;;;;;;6.00;6.00;;;;;24.90;56.54;101510.13;5069494;28;45458;-80
2023/09/04 10:01:12;;;;;;;;;9.75;7.25;;;;;25.00;56.59;101503.09;5087410;27;47157;-79
2023/09/04 10:03:38;;;;;;;;;10.00;7.00;;;;;25.08;56.46;101497.16;5060884;28;45227;-80
2023/09/04 10:06:05;;;;;;;;;8.25;7.00;;;;;25.17;56.01;101507.16;5067085;27;45514;-80
2023/09/04 10:08:33;;;;;;;;;6.50;6.50;;;;;25.20;55.38;101496.19;5051854;28;45538;-80
2023/09/04 10:11:01;;;;;;;;;7.00;7.00;;;;;25.31;55.47;101492.72;5080137;27;45203;-80
2023/09/04 10:13:28;;;;;;;;;9.25;8.25;;;;;25.39;55.48;101492.13;5081561;28;45392;-80
2023/09/04 10:15:57;;;;;;;;;6.50;6.50;;;;;25.43;55.23;101488.25;5075661;27;45550;-79
2023/09/04 10:18:29;;;;;;;;;7.25;5.50;;;;;25.52;54.54;101495.56;5072747;27;45431;-80
2023/09/04 10:20:56;;;;;;;;;7.00;6.00;;;;;25.57;54.40;101484.50;5080240;27;46112;-80
2023/09/04 10:23:24;;;;;;;;;8.50;6.00;;;;;25.65;54.74;101475.84;5071590;27;46112;-79
2023/09/04 10:26:02;;;;;;;;;7.25;6.25;;;;;25.68;54.46;101468.41;5082386;27;45355;-79
2023/09/04 10:28:33;;;;;;;;;7.75;6.75;;;;;25.73;54.31;101468.03;5067887;27;45601;-79
2023/09/04 10:31:00;;;;;;;;;8.00;5.25;;;;;25.79;54.58;101456.81;5054401;28;48393;-79
2023/09/04 10:33:26;;;;;;;;;5.50;5.50;;;;;25.88;53.91;101465.94;5076633;27;45189;-79
2023/09/04 10:35:54;;;;;;;;;6.25;5.00;;;;;25.95;54.15;101459.16;5064153;28;45297;-79
2023/09/04 10:38:20;;;;;;;;;11.25;8.25;;;;;26.02;54.00;101457.69;5074602;28;45359;-79
2023/09/04 10:40:46;;;;;;;;;11.25;7.25;;;;;26.05;53.76;101449.38;5080610;27;48593;-80
2023/09/04 10:43:11;;;;;;;;;9.50;6.50;;;;;26.16;53.74;101458.41;5074497;27;45431;-78
2023/09/04 10:45:36;;;;;;;;;6.00;5.50;;;;;26.18;53.24;101449.22;5081927;27;45350;-79
2023/09/04 10:48:02;;;;;;;;;6.75;6.75;;;;;26.24;53.71;101445.19;5074602;27;71566;-79
2023/09/04 10:50:29;;;;;;;;;42.00;32.50;;;;;26.28;53.01;101433.25;5078420;27;46238;-79
2023/09/04 10:53:00;;;;;;;;;7.50;7.25;;;;;26.37;53.03;101439.69;5077938;27;45624;-78
2023/09/04 10:55:26;;;;;;;;;10.75;7.00;;;;;26.43;52.28;101431.94;5050734;28;45400;-78
2023/09/04 10:57:54;;;;;;;;;16.25;14.25;;;;;26.51;52.79;101426.81;5060035;28;45851;-78
2023/09/04 11:00:37;;;;;;;;;7.75;6.25;;;;;26.60;52.23;101413.59;5070719;28;45452;-79
2023/09/04 11:03:20;;;;;;;;;10.00;10.00;;;;;26.69;53.18;101416.38;5077907;27;45447;-79
2023/09/04 11:06:07;;;;;;;;;7.25;5.00;;;;;26.78;52.69;101411.22;5077512;28;45366;-79
2023/09/04 11:08:34;;;;;;;;;9.00;7.75;;;;;26.83;52.00;101401.78;5079284;27;45570;-79
2023/09/04 11:11:02;;;;;;;;;8.75;6.50;;;;;26.94;51.89;101400.00;5067625;27;48027;-79
2023/09/04 11:13:27;;;;;;;;;5.25;5.25;;;;;26.98;51.28;101391.53;5077401;27;45278;-78
2023/09/04 11:15:56;;;;;;;;;8.25;6.25;;;;;27.05;51.50;101402.59;5059403;28;45459;-78
2023/09/04 11:18:22;;;;;;;;;8.75;6.00;;;;;27.11;51.06;101395.84;5063023;28;45710;-78